Time;durP1;ratioP1;P1;durP2;ratioP2;P2;SDS_P1;SDS_P2;PMS_P1;PMS_P2;Temp;Humidity;BMP_temperature;BMP_pressure;BME280_temperature;BME280_humidity;BME280_pressure;Samples;Min_cycle;Max_cycle;Signal;HPM_P1;HPM_P2
2022/05/26 00:01:38;;;;;;;0.80;0.80;;;25.10;53.90;;;;;;4872218;29;20466;-61
2022/05/26 00:04:09;;;;;;;0.68;0.68;;;25.10;53.90;;;;;;4885410;29;20541;-61
2022/05/26 00:09:43;;;;;;;0.60;0.60;;;25.10;53.90;;;;;;4868281;29;20275;-61
2022/05/26 00:12:12;;;;;;;0.70;0.70;;;25.10;53.90;;;;;;4872373;29;20418;-61
2022/05/26 00:14:40;;;;;;;0.75;0.75;;;25.10;53.90;;;;;;4871758;29;20056;-61
2022/05/26 00:17:08;;;;;;;0.70;0.70;;;25.10;53.90;;;;;;4886042;29;20383;-61
2022/05/26 00:19:36;;;;;;;0.70;0.70;;;25.10;53.90;;;;;;4871061;29;20048;-61
2022/05/26 00:22:03;;;;;;;0.82;0.82;;;25.10;53.90;;;;;;4872147;29;20568;-62
2022/05/26 00:24:31;;;;;;;0.90;0.90;;;25.10;53.80;;;;;;4871295;29;20346;-61
2022/05/26 00:26:58;;;;;;;0.60;0.60;;;25.10;53.80;;;;;;4871772;29;20661;-61
2022/05/26 00:29:25;;;;;;;0.73;0.73;;;25.10;53.80;;;;;;4871478;29;20056;-61
2022/05/26 00:31:52;;;;;;;0.98;0.90;;;25.10;53.80;;;;;;4870955;29;20049;-61
2022/05/26 00:34:19;;;;;;;0.65;0.65;;;25.10;53.80;;;;;;4885768;29;20100;-61
2022/05/26 00:36:46;;;;;;;0.68;0.68;;;25.10;54.30;;;;;;4871683;29;20052;-61
2022/05/26 00:39:21;;;;;;;0.77;0.77;;;25.10;53.80;;;;;;4869963;29;20057;-60
2022/05/26 00:41:54;;;;;;;0.40;0.40;;;25.10;53.80;;;;;;4868702;29;20494;-61
2022/05/26 00:44:22;;;;;;;0.60;0.60;;;25.10;53.80;;;;;;4871257;29;20078;-61
2022/05/26 00:46:55;;;;;;;0.70;0.70;;;25.10;53.80;;;;;;4872094;29;20291;-61
2022/05/26 00:49:35;;;;;;;0.60;0.60;;;25.10;53.80;;;;;;4870914;29;20311;-60
2022/05/26 00:52:04;;;;;;;0.55;0.55;;;25.10;53.80;;;;;;4871599;29;20084;-61
2022/05/26 00:54:31;;;;;;;0.45;0.45;;;25.10;53.80;;;;;;4873434;29;20105;-63
2022/05/26 00:57:08;;;;;;;0.70;0.70;;;25.10;53.80;;;;;;4875600;29;20073;-63
2022/05/26 00:59:48;;;;;;;0.50;0.50;;;25.10;53.80;;;;;;4874404;29;20450;-61
2022/05/26 01:02:18;;;;;;;;;;;25.10;53.70;;;;;;4875607;29;20056;-61
2022/05/26 01:04:55;;;;;;;0.90;0.90;;;25.10;53.70;;;;;;4875179;29;19952;-61
2022/05/26 01:07:28;;;;;;;1.75;0.77;;;25.10;53.70;;;;;;4874612;29;20081;-61
2022/05/26 01:09:56;;;;;;;0.70;0.70;;;25.10;53.70;;;;;;4875073;29;20061;-61
2022/05/26 01:12:23;;;;;;;0.50;0.50;;;25.10;53.70;;;;;;4871363;29;20053;-61
2022/05/26 01:15:01;;;;;;;0.43;0.43;;;25.10;53.70;;;;;;4888711;29;20458;-61
2022/05/26 01:18:00;;;;;;;0.70;0.70;;;25.10;53.70;;;;;;4888333;29;20490;-61
2022/05/26 01:20:54;;;;;;;0.60;0.60;;;25.10;53.60;;;;;;4885836;29;20690;-61
2022/05/26 01:24:01;;;;;;;0.45;0.45;;;25.10;53.60;;;;;;4874872;29;20061;-61
2022/05/26 01:27:00;;;;;;;1.17;0.68;;;25.10;53.60;;;;;;4886821;29;20057;-61
2022/05/26 01:30:03;;;;;;;0.68;0.68;;;25.10;53.60;;;;;;4874226;29;20092;-61
2022/05/26 01:32:54;;;;;;;0.98;0.63;;;25.10;53.60;;;;;;4874463;29;20319;-61
2022/05/26 01:35:49;;;;;;;0.60;0.60;;;25.10;53.60;;;;;;4874803;29;20107;-62
2022/05/26 01:38:42;;;;;;;1.02;0.50;;;25.10;53.60;;;;;;4885370;29;20274;-62
2022/05/26 01:41:49;;;;;;;0.60;0.50;;;25.10;53.60;;;;;;4874206;29;20084;-61
2022/05/26 01:44:40;;;;;;;0.40;0.40;;;25.00;53.50;;;;;;4869731;29;20097;-61
2022/05/26 01:47:26;;;;;;;0.60;0.60;;;25.00;53.60;;;;;;4874070;29;20061;-61
2022/05/26 01:50:01;;;;;;;0.50;0.50;;;25.10;53.60;;;;;;4873839;29;20473;-61
2022/05/26 01:52:44;;;;;;;0.50;0.50;;;25.00;53.50;;;;;;4874583;29;20133;-61
2022/05/26 01:55:18;;;;;;;0.52;0.52;;;25.00;53.50;;;;;;4874193;29;20554;-61
2022/05/26 01:57:58;;;;;;;0.50;0.50;;;25.00;53.60;;;;;;4874724;29;20324;-61
2022/05/26 02:00:25;;;;;;;0.60;0.60;;;25.00;53.60;;;;;;4873016;29;20252;-61
2022/05/26 02:03:11;;;;;;;0.50;0.50;;;25.00;53.60;;;;;;4872548;29;20045;-61
2022/05/26 02:05:54;;;;;;;0.30;0.30;;;25.00;53.60;;;;;;4872668;29;20136;-61
2022/05/26 02:08:28;;;;;;;1.90;0.60;;;25.10;53.60;;;;;;4873364;29;20064;-61
2022/05/26 02:11:13;;;;;;;0.70;0.70;;;25.00;53.60;;;;;;4873252;29;20447;-61
2022/05/26 02:14:02;;;;;;;0.55;0.55;;;25.00;53.60;;;;;;4854669;29;20046;-61
2022/05/26 02:16:39;;;;;;;1.10;0.30;;;25.00;53.60;;;;;;4864808;29;20089;-61
2022/05/26 02:19:13;;;;;;;0.47;0.45;;;25.00;53.60;;;;;;4855056;29;20045;-61
2022/05/26 02:21:46;;;;;;;0.43;0.43;;;25.00;53.60;;;;;;4855172;29;20045;-61
2022/05/26 02:24:22;;;;;;;1.15;1.05;;;25.00;53.60;;;;;;4854268;29;20077;-61
2022/05/26 02:26:49;;;;;;;0.43;0.43;;;25.00;53.60;;;;;;4854851;29;20105;-61
2022/05/26 02:32:05;;;;;;;0.38;0.38;;;25.00;53.50;;;;;;4854285;29;20045;-61
2022/05/26 02:34:34;;;;;;;0.35;0.35;;;25.00;53.50;;;;;;4855088;29;20046;-61
2022/05/26 02:37:03;;;;;;;0.30;0.30;;;25.00;53.50;;;;;;4854470;29;20045;-61
2022/05/26 02:39:30;;;;;;;0.40;0.40;;;25.00;53.50;;;;;;4855026;29;20598;-61
2022/05/26 02:41:59;;;;;;;0.40;0.40;;;25.00;54.00;;;;;;4854402;29;20053;-61
2022/05/26 02:44:28;;;;;;;0.40;0.40;;;25.00;53.50;;;;;;4855133;29;20738;-61
2022/05/26 02:47:22;;;;;;;0.35;0.35;;;25.00;53.50;;;;;;4850190;29;20049;-61
2022/05/26 02:50:19;;;;;;;0.95;0.55;;;25.00;53.40;;;;;;4853804;29;20114;-60
2022/05/26 02:53:01;;;;;;;0.40;0.40;;;25.00;53.40;;;;;;4854473;29;20077;-61
2022/05/26 02:55:53;;;;;;;0.45;0.45;;;25.00;53.40;;;;;;4854359;29;20084;-61
2022/05/26 02:58:38;;;;;;;0.40;0.40;;;25.00;53.40;;;;;;4854870;29;20136;-61
2022/05/26 03:01:23;;;;;;;0.45;0.45;;;25.00;53.40;;;;;;4854167;29;20280;-61
2022/05/26 03:04:08;;;;;;;0.43;0.40;;;25.00;53.40;;;;;;4854260;29;20053;-61
2022/05/26 03:06:46;;;;;;;1.17;0.45;;;25.00;53.40;;;;;;4866386;29;20502;-61
2022/05/26 03:09:14;;;;;;;0.40;0.40;;;25.00;53.30;;;;;;4854419;29;20137;-61
2022/05/26 03:11:46;;;;;;;0.40;0.40;;;25.00;53.30;;;;;;4853823;29;20129;-61
2022/05/26 03:14:15;;;;;;;0.40;0.40;;;25.00;53.30;;;;;;4867826;29;20451;-61
2022/05/26 03:16:43;;;;;;;0.47;0.47;;;25.00;53.30;;;;;;4853938;29;20082;-61
2022/05/26 03:19:10;;;;;;;0.40;0.40;;;25.00;53.30;;;;;;4849833;29;20049;-61
2022/05/26 03:21:38;;;;;;;0.40;0.40;;;25.00;53.30;;;;;;4853869;29;20054;-61
2022/05/26 03:24:06;;;;;;;0.35;0.35;;;25.00;53.30;;;;;;4853912;29;20113;-61
2022/05/26 03:26:34;;;;;;;0.40;0.40;;;25.00;53.30;;;;;;4853787;29;20468;-62
2022/05/26 03:29:02;;;;;;;0.43;0.43;;;25.00;53.30;;;;;;4853674;29;20053;-61
2022/05/26 03:31:30;;;;;;;0.60;0.60;;;25.00;53.20;;;;;;4865428;29;20359;-62
2022/05/26 03:42:19;;;;;;;0.25;0.25;;;25.00;53.20;;;;;;4870181;29;20190;-61
2022/05/26 03:44:47;;;;;;;0.47;0.47;;;25.00;53.10;;;;;;4861897;29;20045;-61
2022/05/26 03:47:14;;;;;;;0.60;0.60;;;25.00;53.10;;;;;;4865931;29;20053;-61
2022/05/26 03:49:41;;;;;;;1.00;0.65;;;25.00;53.10;;;;;;4865024;29;20140;-61
2022/05/26 03:52:09;;;;;;;1.05;0.40;;;25.00;53.10;;;;;;4870606;29;20729;-61
2022/05/26 03:54:36;;;;;;;0.85;0.60;;;25.10;53.10;;;;;;4871019;29;20410;-61
2022/05/26 03:57:03;;;;;;;0.20;0.20;;;25.10;53.00;;;;;;4872690;29;20128;-61
2022/05/26 03:59:32;;;;;;;0.40;0.40;;;25.10;53.00;;;;;;4871534;29;20049;-61
2022/05/26 04:02:00;;;;;;;0.30;0.30;;;25.10;52.90;;;;;;4871528;29;20084;-61
2022/05/26 04:04:27;;;;;;;0.40;0.40;;;25.10;52.90;;;;;;4864898;29;20065;-61
2022/05/26 04:06:54;;;;;;;0.30;0.30;;;25.10;52.80;;;;;;4866978;29;20082;-61
2022/05/26 04:09:21;;;;;;;0.32;0.32;;;25.10;52.80;;;;;;4852829;29;20291;-61
2022/05/26 04:11:49;;;;;;;0.45;0.35;;;25.20;52.80;;;;;;4853281;29;20057;-61
2022/05/26 04:14:16;;;;;;;0.40;0.40;;;25.20;52.70;;;;;;4853218;29;20057;-61
2022/05/26 04:16:43;;;;;;;0.30;0.30;;;25.20;52.60;;;;;;4853402;29;20081;-61
2022/05/26 04:19:10;;;;;;;0.20;0.20;;;25.20;52.50;;;;;;4852263;29;20053;-61
2022/05/26 04:22:14;;;;;;;1.00;0.65;;;25.30;52.50;;;;;;4848957;29;20114;-62
2022/05/26 04:24:25;;;;;;;0.40;0.40;;;25.30;52.40;;;;;;4852756;29;20053;-61
2022/05/26 04:26:52;;;;;;;0.30;0.30;;;25.30;52.40;;;;;;4867038;29;20057;-61
2022/05/26 04:29:23;;;;;;;0.22;0.22;;;25.30;52.30;;;;;;4852697;29;20084;-61
2022/05/26 04:31:51;;;;;;;0.20;0.20;;;25.40;52.20;;;;;;4853088;29;20046;-61
2022/05/26 04:34:19;;;;;;;0.50;0.50;;;25.40;52.20;;;;;;4854314;29;20069;-61
2022/05/26 04:36:46;;;;;;;0.30;0.30;;;25.40;52.10;;;;;;4869055;29;20080;-61
2022/05/26 04:39:14;;;;;;;0.25;0.25;;;25.50;52.50;;;;;;4861684;29;20054;-61
2022/05/26 04:41:42;;;;;;;1.65;0.43;;;25.50;51.90;;;;;;4867329;29;20081;-61
2022/05/26 04:44:10;;;;;;;0.38;0.38;;;25.50;51.80;;;;;;4868070;29;20084;-61
2022/05/26 04:46:38;;;;;;;0.60;0.47;;;25.60;51.70;;;;;;4882437;29;20045;-61
2022/05/26 04:49:06;;;;;;;0.30;0.20;;;25.60;51.70;;;;;;4869150;29;20337;-61
2022/05/26 04:51:34;;;;;;;0.30;0.30;;;25.60;51.60;;;;;;4867876;29;20041;-61
2022/05/26 04:54:03;;;;;;;0.30;0.30;;;25.60;51.60;;;;;;4859777;29;20307;-61
2022/05/26 04:56:30;;;;;;;0.15;0.15;;;25.60;51.60;;;;;;4862547;29;20553;-61
2022/05/26 04:58:57;;;;;;;0.35;0.35;;;25.60;51.60;;;;;;4868461;29;20073;-61
2022/05/26 05:01:24;;;;;;;0.47;0.47;;;25.60;51.50;;;;;;4870442;29;20048;-61
2022/05/26 05:03:52;;;;;;;0.40;0.40;;;25.60;51.50;;;;;;4867390;29;20334;-61
2022/05/26 05:06:19;;;;;;;0.28;0.28;;;25.70;51.50;;;;;;4866627;29;20553;-61
2022/05/26 05:08:46;;;;;;;0.25;0.25;;;25.70;51.40;;;;;;4866329;29;20251;-61
2022/05/26 05:11:13;;;;;;;0.30;0.20;;;25.70;51.40;;;;;;4864287;29;20144;-61
2022/05/26 05:13:41;;;;;;;0.40;0.40;;;25.70;51.30;;;;;;4869164;29;20057;-61
2022/05/26 05:16:30;;;;;;;0.25;0.25;;;25.60;51.20;;;;;;4871362;29;20332;-61
2022/05/26 05:18:58;;;;;;;0.38;0.38;;;25.50;51.30;;;;;;4875531;29;20057;-61
2022/05/26 05:21:43;;;;;;;0.22;0.22;;;25.40;51.50;;;;;;4863152;29;20092;-61
2022/05/26 05:24:49;;;;;;;0.20;0.20;;;25.10;51.90;;;;;;4855485;29;20378;-61
2022/05/26 05:27:27;;;;;;;0.30;0.30;;;24.80;52.10;;;;;;4863431;29;20057;-61
2022/05/26 05:29:58;;;;;;;0.30;0.30;;;24.40;51.40;;;;;;4864813;29;20127;-63
2022/05/26 05:32:43;;;;;;;0.30;0.30;;;24.00;50.80;;;;;;4861562;29;20422;-62
2022/05/26 05:35:15;;;;;;;0.20;0.20;;;23.70;50.50;;;;;;4858160;29;20117;-59
2022/05/26 05:37:43;;;;;;;0.50;0.50;;;23.30;50.20;;;;;;4865156;29;20254;-61
2022/05/26 05:40:11;;;;;;;0.30;0.30;;;22.90;50.00;;;;;;4861116;29;20164;-63
2022/05/26 05:42:39;;;;;;;0.32;0.32;;;22.60;50.00;;;;;;4865588;29;20093;-61
2022/05/26 05:45:07;;;;;;;0.52;0.50;;;22.20;50.60;;;;;;4866151;29;20135;-62
2022/05/26 05:47:35;;;;;;;4.25;0.70;;;21.90;50.60;;;;;;4868569;29;20473;-62
2022/05/26 05:50:02;;;;;;;2.33;0.50;;;21.60;51.90;;;;;;4866293;29;20452;-63
2022/05/26 05:52:30;;;;;;;0.90;0.88;;;21.40;53.40;;;;;;4871404;29;20057;-62
2022/05/26 05:54:57;;;;;;;0.68;0.68;;;21.20;53.40;;;;;;4862429;29;20486;-59
2022/05/26 05:57:24;;;;;;;17.58;1.77;;;21.00;52.90;;;;;;4875616;29;20057;-60
2022/05/26 05:59:52;;;;;;;2.05;0.95;;;20.80;54.10;;;;;;4866158;29;20041;-61
2022/05/26 06:02:20;;;;;;;1.30;1.20;;;20.70;54.40;;;;;;4865323;29;20439;-60
2022/05/26 06:05:05;;;;;;;1.67;1.20;;;20.50;53.70;;;;;;4863347;29;20144;-60
2022/05/26 06:07:32;;;;;;;1.05;0.90;;;20.50;54.20;;;;;;4860448;29;20061;-60
2022/05/26 06:09:59;;;;;;;2.65;1.40;;;20.40;54.80;;;;;;4869395;29;20076;-62
2022/05/26 06:12:28;;;;;;;1.75;0.70;;;20.30;54.00;;;;;;4864418;29;20049;-60
2022/05/26 06:14:55;;;;;;;5.88;0.90;;;20.20;53.70;;;;;;4861065;29;20099;-61
2022/05/26 06:17:22;;;;;;;1.30;1.20;;;20.10;54.90;;;;;;4861211;29;20363;-60
2022/05/26 06:19:49;;;;;;;2.80;1.02;;;20.10;55.40;;;;;;4880366;29;20053;-60
2022/05/26 06:22:19;;;;;;;1.30;1.20;;;20.10;54.70;;;;;;4864977;29;20063;-62
2022/05/26 06:24:48;;;;;;;10.68;2.25;;;20.00;55.40;;;;;;4857912;29;20552;-62
2022/05/26 06:30:14;;;;;;;2.22;1.98;;;19.80;55.30;;;;;;4865647;29;20486;-61
2022/05/26 06:38:27;;;;;;;1.25;1.10;;;19.60;56.10;;;;;;4868503;29;20451;-62
2022/05/26 06:40:54;;;;;;;1.38;1.27;;;19.50;56.00;;;;;;4865361;29;20123;-61
2022/05/26 06:43:21;;;;;;;2.08;1.60;;;19.50;57.10;;;;;;4866923;29;20098;-60
2022/05/26 06:45:49;;;;;;;1.83;1.50;;;19.50;57.00;;;;;;4867501;29;20116;-60
2022/05/26 06:48:16;;;;;;;3.70;2.03;;;19.40;56.40;;;;;;4864649;29;20045;-60
2022/05/26 06:50:44;;;;;;;1.52;1.38;;;19.40;56.80;;;;;;4864074;29;20110;-62
2022/05/26 06:53:11;;;;;;;1.30;1.20;;;19.30;57.00;;;;;;4863661;29;20056;-61
2022/05/26 06:55:38;;;;;;;3.22;1.20;;;19.30;56.40;;;;;;4863566;29;20504;-61
2022/05/26 06:58:06;;;;;;;6.55;1.80;;;19.20;56.30;;;;;;4862314;29;20464;-64
2022/05/26 07:00:33;;;;;;;2.22;2.03;;;19.20;57.40;;;;;;4859421;29;20057;-65
2022/05/26 07:03:00;;;;;;;3.80;2.53;;;19.20;57.40;;;;;;4863473;29;20080;-61
2022/05/26 07:05:27;;;;;;;1.92;1.77;;;19.10;58.20;;;;;;4863688;29;20088;-62
2022/05/26 07:07:55;;;;;;;1.60;1.50;;;19.10;58.90;;;;;;4863602;29;20128;-62
2022/05/26 07:10:22;;;;;;;2.92;1.40;;;19.10;57.40;;;;;;4862236;29;20064;-61
2022/05/26 07:12:50;;;;;;;2.35;2.08;;;19.00;56.40;;;;;;4866703;29;20093;-62
2022/05/26 07:15:17;;;;;;;2.53;2.10;;;18.90;57.50;;;;;;4867292;29;20458;-61
2022/05/26 07:17:45;;;;;;;3.10;2.13;;;18.90;57.50;;;;;;4864248;29;20057;-64
2022/05/26 07:20:13;;;;;;;1.48;1.30;;;18.80;57.10;;;;;;4866640;29;20107;-62
2022/05/26 07:22:40;;;;;;;1.80;1.70;;;18.80;57.90;;;;;;4882705;29;20061;-62
2022/05/26 07:25:08;;;;;;;2.70;2.30;;;18.80;58.90;;;;;;4863077;29;20061;-65
2022/05/26 07:27:35;;;;;;;2.30;1.95;;;18.80;58.70;;;;;;4866890;29;20095;-61
2022/05/26 07:30:04;;;;;;;1.55;1.45;;;18.70;57.20;;;;;;4860366;29;20048;-61
2022/05/26 07:32:32;;;;;;;1.83;1.45;;;18.70;58.40;;;;;;4863057;29;20070;-62
2022/05/26 07:34:59;;;;;;;2.33;1.58;;;18.60;58.40;;;;;;4865297;29;20076;-64
2022/05/26 07:43:02;;;;;;;2.10;1.63;;;18.60;59.10;;;;;;4863368;29;20101;-64
2022/05/26 07:45:29;;;;;;;2.08;1.27;;;18.50;58.50;;;;;;4865773;29;20063;-63
2022/05/26 07:47:57;;;;;;;1.80;1.70;;;18.50;58.90;;;;;;4867122;29;20056;-63
2022/05/26 07:50:24;;;;;;;2.05;1.95;;;18.50;59.70;;;;;;4863791;29;21126;-61
2022/05/26 07:52:51;;;;;;;1.90;1.80;;;18.50;58.70;;;;;;4863223;29;20114;-61
2022/05/26 07:55:20;;;;;;;1.50;1.40;;;18.50;58.90;;;;;;4865092;29;20060;-61
2022/05/26 07:57:56;;;;;;;2.88;1.52;;;18.40;58.20;;;;;;4868095;29;20056;-61
2022/05/26 08:00:24;;;;;;;2.58;2.00;;;18.40;59.70;;;;;;4865412;29;20470;-62
2022/05/26 08:02:52;;;;;;;1.33;1.23;;;18.40;58.40;;;;;;4857459;29;20053;-66
2022/05/26 08:05:19;;;;;;;2.17;1.23;;;18.40;58.40;;;;;;4862512;29;20053;-62
2022/05/26 08:07:46;;;;;;;4.70;1.67;;;18.30;58.50;;;;;;4863759;29;20061;-62
2022/05/26 08:10:15;;;;;;;1.92;1.05;;;18.40;59.00;;;;;;4865383;29;20057;-63
2022/05/26 08:12:43;;;;;;;1.42;1.33;;;18.40;58.50;;;;;;4864958;29;20041;-61
2022/05/26 08:15:10;;;;;;;4.55;1.10;;;18.40;58.30;;;;;;4863504;29;20091;-62
2022/05/26 08:17:39;;;;;;;2.67;1.20;;;18.40;58.70;;;;;;4866502;29;20052;-62
2022/05/26 08:20:08;;;;;;;2.17;1.45;;;18.40;59.10;;;;;;4863122;29;20056;-63
2022/05/26 08:22:35;;;;;;;1.95;1.52;;;18.50;58.80;;;;;;4865194;29;20460;-63
2022/05/26 08:25:03;;;;;;;3.80;2.30;;;18.40;59.30;;;;;;4862226;29;20060;-62
2022/05/26 08:27:30;;;;;;;1.45;1.30;;;18.50;58.40;;;;;;4867083;29;20562;-63
2022/05/26 08:29:59;;;;;;;1.30;1.20;;;18.50;58.60;;;;;;4864896;29;20049;-63
2022/05/26 08:32:26;;;;;;;3.47;1.27;;;18.50;58.90;;;;;;4864627;29;20490;-62
2022/05/26 08:34:59;;;;;;;1.10;1.10;;;18.50;58.50;;;;;;4858366;29;20053;-61
2022/05/26 08:37:26;;;;;;;2.88;1.10;;;18.50;59.10;;;;;;4860485;29;20570;-63
2022/05/26 08:39:54;;;;;;;2.28;1.77;;;18.50;58.50;;;;;;4859493;29;20479;-63
2022/05/26 08:42:27;;;;;;;3.67;1.65;;;18.50;59.40;;;;;;4867083;29;20065;-64
2022/05/26 08:45:10;;;;;;;1.75;1.42;;;18.50;58.80;;;;;;4866741;29;20490;-63
2022/05/26 08:47:44;;;;;;;1.58;1.42;;;18.60;58.80;;;;;;4866581;29;20462;-63
2022/05/26 08:50:16;;;;;;;1.75;1.38;;;18.60;59.00;;;;;;4867004;29;20106;-62
2022/05/26 08:52:56;;;;;;;1.95;1.60;;;18.60;59.60;;;;;;4862843;29;20231;-62
2022/05/26 08:55:31;;;;;;;1.90;0.88;;;18.60;59.60;;;;;;4867901;29;20402;-63
2022/05/26 08:58:14;;;;;;;3.03;1.55;;;18.60;59.10;;;;;;4865762;29;20095;-61
2022/05/26 09:00:45;;;;;;;1.52;1.40;;;18.60;58.60;;;;;;4880169;29;20501;-63
2022/05/26 09:03:29;;;;;;;1.20;1.05;;;18.60;58.20;;;;;;4877894;29;20077;-61
2022/05/26 09:06:07;;;;;;;3.60;0.90;;;18.60;58.20;;;;;;4874560;29;20080;-61
2022/05/26 09:14:30;;;;;;;0.80;0.80;;;18.60;59.40;;;;;;4875924;29;20100;-62
2022/05/26 09:17:02;;;;;;;1.25;1.15;;;18.60;58.90;;;;;;4866683;29;20532;-63
2022/05/26 09:19:49;;;;;;;1.15;0.73;;;18.60;58.50;;;;;;4868601;29;20075;-63
2022/05/26 09:22:40;;;;;;;1.00;1.00;;;18.60;58.40;;;;;;4862434;29;20490;-62
2022/05/26 09:25:47;;;;;;;1.63;1.10;;;18.60;57.90;;;;;;4867602;29;20071;-64
2022/05/26 09:28:46;;;;;;;0.90;0.80;;;18.60;59.10;;;;;;4869042;29;20053;-63
2022/05/26 09:31:23;;;;;;;6.80;1.20;;;18.60;58.70;;;;;;4870675;29;20057;-62
2022/05/26 09:34:22;;;;;;;1.33;1.10;;;18.60;58.50;;;;;;4866729;29;20057;-60
2022/05/26 09:37:10;;;;;;;1.10;0.90;;;18.50;58.50;;;;;;4865067;29;20746;-61
2022/05/26 09:39:42;;;;;;;1.20;1.10;;;18.50;58.20;;;;;;4865155;29;20053;-60
2022/05/26 09:42:29;;;;;;;1.30;0.80;;;18.50;58.40;;;;;;4860561;29;20056;-59
2022/05/26 09:45:03;;;;;;;0.88;0.88;;;18.50;58.60;;;;;;4869414;29;20418;-59
2022/05/26 09:47:39;;;;;;;1.00;0.95;;;18.50;59.20;;;;;;4872230;29;20105;-61
2022/05/26 09:50:09;;;;;;;4.13;1.13;;;18.50;58.70;;;;;;4866746;29;20132;-59
2022/05/26 09:52:41;;;;;;;1.02;0.95;;;18.50;58.60;;;;;;4870033;29;22294;-62
2022/05/26 09:55:20;;;;;;;2.15;1.20;;;18.50;58.50;;;;;;4868403;29;20083;-60
2022/05/26 09:57:48;;;;;;;1.25;1.17;;;18.60;59.30;;;;;;4870453;29;20056;-62
2022/05/26 10:00:30;;;;;;;1.10;1.00;;;18.60;59.20;;;;;;4882259;29;20049;-61
2022/05/26 10:03:00;;;;;;;1.75;1.33;;;18.70;59.00;;;;;;4877167;29;20053;-61
2022/05/26 10:05:55;;;;;;;0.98;0.90;;;18.70;58.30;;;;;;4867865;29;20069;-61
2022/05/26 10:08:38;;;;;;;1.30;1.10;;;18.70;57.60;;;;;;4866889;29;20488;-60
2022/05/26 10:11:19;;;;;;;1.10;1.00;;;18.70;57.80;;;;;;4868031;29;20056;-60
2022/05/26 10:14:06;;;;;;;;;;;18.70;57.60;;;;;;4869730;29;20052;-60
2022/05/26 10:16:57;;;;;;;1.02;0.90;;;18.70;57.80;;;;;;4868406;29;20051;-61
2022/05/26 10:19:40;;;;;;;0.80;0.80;;;18.80;58.10;;;;;;4884313;29;20045;-59
2022/05/26 10:22:30;;;;;;;1.40;1.00;;;18.80;57.70;;;;;;4869242;29;20113;-59
2022/05/26 10:25:23;;;;;;;0.95;0.70;;;18.80;57.80;;;;;;4866122;29;20144;-60
2022/05/26 10:28:04;;;;;;;1.38;0.82;;;18.80;58.00;;;;;;4868138;29;20495;-60
2022/05/26 10:30:45;;;;;;;1.20;1.13;;;18.90;58.70;;;;;;4869787;29;20060;-60
2022/05/26 10:33:49;;;;;;;3.80;1.55;;;18.90;58.10;;;;;;4869200;29;20072;-60
2022/05/26 10:36:24;;;;;;;1.23;1.23;;;18.90;58.00;;;;;;4868647;29;20060;-60
2022/05/26 10:39:23;;;;;;;8.05;1.23;;;18.90;57.40;;;;;;4884592;29;20113;-60
2022/05/26 10:42:02;;;;;;;1.13;1.00;;;19.00;57.30;;;;;;4864540;29;20466;-62
2022/05/26 10:44:49;;;;;;;0.95;0.95;;;19.10;56.90;;;;;;4865365;29;20140;-61
2022/05/26 10:47:23;;;;;;;0.75;0.75;;;19.10;56.50;;;;;;4864186;29;20497;-63
2022/05/26 10:50:02;;;;;;;0.75;0.75;;;19.10;56.20;;;;;;4867392;29;20057;-62
2022/05/26 10:52:36;;;;;;;2.33;0.80;;;19.10;55.70;;;;;;4880847;29;20057;-61
2022/05/26 10:55:16;;;;;;;1.83;0.60;;;19.00;56.40;;;;;;4863523;29;20092;-62
2022/05/26 10:58:14;;;;;;;1.02;1.02;;;19.00;56.30;;;;;;4865146;29;20421;-62
2022/05/26 11:00:49;;;;;;;0.70;0.70;;;19.10;55.90;;;;;;4869188;29;20109;-63
2022/05/26 11:03:27;;;;;;;0.60;0.60;;;19.10;56.50;;;;;;4863520;29;20486;-60
2022/05/26 11:06:12;;;;;;;0.98;0.80;;;19.20;55.80;;;;;;4879364;29;20049;-62
2022/05/26 11:08:46;;;;;;;2.70;0.90;;;19.20;55.90;;;;;;4866097;29;20061;-59
2022/05/26 11:11:23;;;;;;;0.60;0.60;;;19.20;56.70;;;;;;4864092;29;20057;-60
2022/05/26 11:14:05;;;;;;;0.60;0.60;;;19.20;57.00;;;;;;4863054;29;20109;-60
2022/05/26 11:19:58;;;;;;;0.60;0.60;;;19.20;57.60;;;;;;4863054;29;20053;-60
2022/05/26 11:26:23;;;;;;;0.77;0.50;;;19.10;58.00;;;;;;4867923;29;20599;-61
2022/05/26 11:29:00;;;;;;;2.85;0.82;;;19.10;57.30;;;;;;4866700;29;20056;-62
2022/05/26 11:37:35;;;;;;;0.65;0.65;;;19.20;57.20;;;;;;4873927;29;20414;-62
2022/05/26 11:40:10;;;;;;;0.52;0.52;;;19.20;57.30;;;;;;4864315;29;20061;-62
2022/05/26 11:42:50;;;;;;;1.23;0.60;;;19.20;57.20;;;;;;4863205;29;20053;-62
2022/05/26 11:45:33;;;;;;;1.50;0.50;;;19.20;57.10;;;;;;4876000;29;20061;-61
2022/05/26 11:48:05;;;;;;;1.45;0.65;;;19.20;57.10;;;;;;4868509;29;20550;-63
2022/05/26 11:51:22;;;;;;;0.80;0.80;;;19.20;57.00;;;;;;4868078;29;20132;-61
2022/05/26 11:53:51;;;;;;;0.55;0.52;;;19.30;56.80;;;;;;4875894;29;20060;-61
2022/05/26 11:56:40;;;;;;;0.82;0.82;;;19.30;56.60;;;;;;4864635;29;20068;-61
2022/05/26 11:59:41;;;;;;;0.98;0.55;;;19.20;56.90;;;;;;4864142;29;20049;-61
2022/05/26 12:02:16;;;;;;;1.25;0.57;;;19.30;57.00;;;;;;4862381;29;20073;-62
2022/05/26 12:04:48;;;;;;;0.73;0.70;;;19.40;57.10;;;;;;4878983;29;20114;-61
2022/05/26 12:07:36;;;;;;;2.35;0.60;;;19.30;56.70;;;;;;4867324;29;20136;-62
2022/05/26 12:10:18;;;;;;;0.95;0.73;;;19.40;55.80;;;;;;4866577;29;20048;-62
2022/05/26 12:12:45;;;;;;;0.75;0.60;;;19.50;56.00;;;;;;4867858;29;20410;-61
2022/05/26 12:15:24;;;;;;;1.13;0.55;;;19.50;56.40;;;;;;4862481;29;20045;-62
2022/05/26 12:17:55;;;;;;;1.27;0.70;;;19.50;56.30;;;;;;4866657;29;20049;-62
2022/05/26 12:20:30;;;;;;;2.92;0.80;;;19.50;56.60;;;;;;4866122;29;20059;-62
2022/05/26 12:23:19;;;;;;;1.33;0.55;;;19.60;57.00;;;;;;4865518;29;20049;-62
2022/05/26 12:25:46;;;;;;;1.20;0.65;;;19.70;56.50;;;;;;4868784;29;20050;-61
2022/05/26 12:28:31;;;;;;;9.77;0.55;;;19.60;56.80;;;;;;4863732;29;20585;-61
2022/05/26 12:31:07;;;;;;;2.10;0.90;;;19.60;56.90;;;;;;4866807;29;20056;-61
2022/05/26 12:33:52;;;;;;;0.70;0.70;;;19.60;56.70;;;;;;4864053;29;20053;-61
2022/05/26 12:36:54;;;;;;;0.90;0.40;;;19.60;56.90;;;;;;4864328;29;20125;-62
2022/05/26 12:40:01;;;;;;;3.17;0.98;;;19.60;56.90;;;;;;4875142;29;20078;-62
2022/05/26 12:42:57;;;;;;;3.03;0.50;;;19.70;56.90;;;;;;4878848;29;20156;-61
2022/05/26 12:45:49;;;;;;;4.80;0.98;;;19.70;56.50;;;;;;4864529;29;20065;-65
2022/05/26 12:48:51;;;;;;;2.50;0.50;;;19.70;56.50;;;;;;4875219;29;20060;-61
2022/05/26 12:51:20;;;;;;;0.63;0.63;;;19.70;56.90;;;;;;4867388;29;20081;-61
2022/05/26 12:53:56;;;;;;;0.60;0.60;;;19.70;56.90;;;;;;4883264;29;20494;-61
2022/05/26 12:56:39;;;;;;;0.63;0.40;;;19.70;56.90;;;;;;4869000;29;20497;-62
2022/05/26 12:59:06;;;;;;;6.50;0.80;;;19.70;57.00;;;;;;4868946;29;20057;-63
2022/05/26 13:01:34;;;;;;;0.95;0.50;;;19.70;57.20;;;;;;4865094;29;20518;-59
2022/05/26 13:04:10;;;;;;;0.60;0.60;;;19.70;57.40;;;;;;4871033;29;20057;-59
2022/05/26 13:06:42;;;;;;;0.60;0.60;;;19.80;57.20;;;;;;4871724;29;20131;-59
2022/05/26 13:09:21;;;;;;;0.40;0.40;;;19.80;57.30;;;;;;4862920;29;20499;-61
2022/05/26 13:11:53;;;;;;;1.77;0.50;;;19.80;57.40;;;;;;4878323;29;20053;-59
2022/05/26 13:14:48;;;;;;;0.40;0.40;;;19.90;57.20;;;;;;4884348;29;20048;-61
2022/05/26 13:17:26;;;;;;;1.35;0.65;;;19.90;57.40;;;;;;4858846;29;20550;-67
2022/05/26 13:19:59;;;;;;;2.60;0.60;;;19.90;57.30;;;;;;4866582;29;20097;-59
2022/05/26 13:22:36;;;;;;;0.80;0.80;;;19.90;57.20;;;;;;4874278;29;20057;-59
2022/05/26 13:25:13;;;;;;;2.22;0.50;;;20.00;57.10;;;;;;4864696;29;20470;-59
2022/05/26 13:27:58;;;;;;;2.05;0.98;;;20.00;57.00;;;;;;4877910;29;20053;-59
2022/05/26 13:33:45;;;;;;;0.70;0.70;;;20.00;56.90;;;;;;4866846;29;20498;-60
2022/05/26 13:36:41;;;;;;;1.80;1.00;;;20.00;57.10;;;;;;4865218;29;20426;-58
2022/05/26 13:39:12;;;;;;;3.72;0.77;;;20.10;57.80;;;;;;4871254;29;20180;-60
2022/05/26 13:41:47;;;;;;;1.60;0.63;;;20.00;58.10;;;;;;4869350;29;20049;-60
2022/05/26 13:44:19;;;;;;;1.75;0.63;;;20.10;58.20;;;;;;4868763;29;20116;-58
2022/05/26 13:46:51;;;;;;;1.60;0.57;;;20.10;58.00;;;;;;4868603;29;20057;-58
2022/05/26 13:49:32;;;;;;;0.80;0.50;;;20.10;57.80;;;;;;4863945;29;20056;-58
2022/05/26 13:52:08;;;;;;;0.60;0.60;;;20.10;58.00;;;;;;4870459;29;20052;-59
2022/05/26 13:54:43;;;;;;;0.60;0.50;;;20.10;58.40;;;;;;4858072;29;20486;-59
2022/05/26 13:57:31;;;;;;;1.08;0.57;;;20.10;58.30;;;;;;4868949;29;20521;-60
2022/05/26 14:00:02;;;;;;;0.47;0.47;;;20.10;58.30;;;;;;4864255;29;20099;-61
2022/05/26 14:02:33;;;;;;;6.60;0.88;;;20.10;58.20;;;;;;4880192;29;20053;-61
2022/05/26 14:05:22;;;;;;;1.25;0.60;;;20.10;58.20;;;;;;4871957;29;20044;-61
2022/05/26 14:08:09;;;;;;;0.40;0.40;;;20.20;58.10;;;;;;4870043;29;20052;-60
2022/05/26 14:10:50;;;;;;;0.52;0.40;;;20.20;58.10;;;;;;4895573;29;21281;-61
2022/05/26 14:13:36;;;;;;;0.38;0.38;;;20.30;57.90;;;;;;4880872;29;20056;-60
2022/05/26 14:16:19;;;;;;;0.50;0.50;;;20.30;57.90;;;;;;4870678;29;20549;-59
2022/05/26 14:18:52;;;;;;;1.38;0.68;;;20.30;57.70;;;;;;4869954;29;20049;-61
2022/05/26 14:21:36;;;;;;;0.63;0.60;;;20.30;57.80;;;;;;4862765;29;21766;-62